x

North Nomad (46184) Wave Buoy

12:00am - Fri 28th Aug 2015 All times are AKDT. -8 hours from GMT.

  • Sig Wave height 5.6ft
  • Peak Period 7s
  • Wind
    18mph, 20mph gusts
  • Sea Temp 59°f
  • Air Temp 57°f
  • Sea Pressure 999.2mb
  • North Nomad
  • North Nomad

More Historic Weather Station data

Upgrade to MSW Pro to gain access to the past 30 days of data for over 8000 Wavebouys and Weather Stations around the globe.

Join Pro

Comparision Forecast

View Surf forecast
   
Fri 08/28 12:00am 5.5ft 7s 18 20 mph 999.2mb 59f 57f
Thu 08/27 11:00pm 6ft 15s 13 16 mph 1000.1mb 59f 57f
10:00pm 6ft 6s 13 16 mph 1001.1mb 59f 57f
9:00pm 6.5ft 6s 16 18 mph 1002.4mb 59f 57f
8:00pm 6ft 6s 18 20 mph 1003.6mb 59f 57f
7:00pm 6ft 6s 18 22 mph 1004.3mb 59f 58f
6:00pm 6.5ft 6s 20 25 mph 1005.6mb 59f 57f
5:00pm 6.5ft 6s 22 29 mph 1006.8mb 59f 57f
4:00pm 6.5ft 5s 22 27 mph 1008.1mb 59f 57f
3:00pm 6ft 5s 22 29 mph 1009.3mb 59f 57f
2:00pm 6ft 16s 22 27 mph 1010.2mb 59f 58f
1:00pm 5.5ft 5s 22 27 mph 1011.1mb 59f 57f
12:00pm 5.5ft 14s 22 29 mph 1011.9mb 59f 57f
11:00am 4.5ft 13s 22 29 mph 1012.7mb 59f 57f
10:00am 4ft 16s 20 25 mph 1013.4mb 59f 57f
9:00am 4ft 14s 18 22 mph 1013.9mb 59f 57f
8:00am 4ft 14s 18 20 mph 1014.8mb 59f 56f
7:00am 3.5ft 14s 16 18 mph 1015.7mb 59f 56f
6:00am 3.5ft 15s 13 16 mph 1016.5mb 59f 56f
5:00am 3.5ft 14s 11 13 mph 1016.9mb 59f 56f
4:00am 3.5ft 14s 9 11 mph 1017.1mb 59f 55f
3:00am 4.5ft 14s 11 13 mph 1017.6mb 59f 56f
2:00am 3.5ft 14s 9 11 mph 1018.5mb 59f 56f
1:00am 4ft 14s 7 9 mph 1018.9mb 59f 55f
12:00am 4.5ft 15s 9 11 mph 1019.3mb 59f 55f
Wed 08/26 11:00pm 4.5ft 15s 2 4 mph 1019.5mb 59f 55f
10:00pm 4.5ft 15s 4 9 mph 1019.8mb 59f 55f
9:00pm 4.5ft 15s 7 11 mph 1020.4mb 58f 56f
8:00pm 4.5ft 15s 9 11 mph 1020.4mb 58f 56f
7:00pm 4.5ft 15s 11 13 mph 1020.6mb 58f 56f
6:00pm 5ft 15s 11 16 mph 1021.1mb 58f 57f
5:00pm 4.5ft 14s 11 18 mph 1021.2mb 59f 57f
4:00pm 4.5ft 14s 13 16 mph 1021.4mb 59f 57f
3:00pm 4.5ft 16s 13 16 mph 1021.7mb 58f 58f
2:00pm 5ft 15s 13 18 mph 1021.7mb 58f 58f
1:00pm 5ft 15s 13 18 mph 1022mb 58f 58f
12:00pm 5ft 15s 13 16 mph 1022.1mb 58f 57f
11:00am 5ft 15s 13 18 mph 1022.2mb 58f 57f
10:00am 5.5ft 15s 16 18 mph 1021.9mb 58f 58f
9:00am 5.5ft 14s 16 18 mph 1022.1mb 58f 58f
8:00am 5.5ft 14s 16 20 mph 1022.4mb 58f 58f
7:00am 5ft 14s 18 22 mph 1022.3mb 58f 58f
6:00am 5ft 14s 16 18 mph 1022.1mb 58f 58f
5:00am 5ft 14s 16 18 mph 1022mb 58f 58f
4:00am 5ft 14s 13 18 mph 1021.8mb 58f 58f
3:00am 5ft 8s 16 20 mph 1022mb 58f 58f
2:00am 5ft 15s 13 18 mph 1022mb 58f 58f
1:00am 5.5ft 15s 16 20 mph 1022mb 58f 58f
12:00am 6ft 14s 18 22 mph 1021.9mb 58f 57f
Tue 08/25 11:00pm 6ft 16s 18 20 mph 1022mb 58f 58f
10:00pm 5.5ft 16s 18 20 mph 1021.8mb 58f 58f
9:00pm 5.5ft 15s 18 20 mph 1021.8mb 58f 58f
8:00pm 5.5ft 14s 20 22 mph 1021.7mb 58f 58f
7:00pm 6ft 14s 20 25 mph 1021.3mb 58f 58f
6:00pm 5.5ft 5s 18 22 mph 1021.3mb 58f 58f
5:00pm 6ft 8s 20 22 mph 1021.3mb 58f 58f
4:00pm 6ft 16s 20 22 mph 1021.2mb 58f 58f
3:00pm 5.5ft 8s 20 25 mph 1021.1mb 58f 58f
2:00pm 6ft 7s 20 22 mph 1021.2mb 58f 58f
1:00pm 6ft 8s 20 22 mph 1021.1mb 58f 58f
12:00pm 5.5ft 8s 20 22 mph 1021mb 58f 58f
11:00am 6ft 9s 20 25 mph 1020.6mb 58f 58f
10:00am 6ft 8s 20 22 mph 1020.3mb 58f 58f
9:00am 6ft 9s 20 22 mph 1020.1mb 58f 58f
8:00am 6ft 9s 18 22 mph 1019.9mb 59f 58f
7:00am 6ft 9s 20 22 mph 1019.5mb 59f 58f
6:00am 6.5ft 8s 20 25 mph 1018.9mb 59f 58f
5:00am 6ft 9s 20 25 mph 1018.3mb 59f 58f
4:00am 6ft 9s 18 22 mph 1018mb 59f 58f
3:00am 6ft 9s 20 25 mph 1017.5mb 59f 58f
2:00am 6ft 9s 18 22 mph 1017.1mb 59f 58f
1:00am 6.5ft 9s 18 22 mph 1016.7mb 59f 58f
12:00am 6ft 10s 18 22 mph 1016.3mb 59f 58f
Mon 08/24 11:00pm 6ft 9s 18 25 mph 1015.9mb 59f 58f
10:00pm 6ft 10s 18 22 mph 1015.6mb 59f 58f
9:00pm 6ft 9s 18 22 mph 1015.1mb 59f 58f
8:00pm 6ft 10s 18 20 mph 1014.6mb 59f 58f
7:00pm 6ft 10s 16 18 mph 1014.4mb 59f 58f
6:00pm 6ft 9s 16 18 mph 1014.2mb 60f 58f
5:00pm 6ft 10s 13 16 mph 1014.1mb 60f 58f
4:00pm 6ft 10s 13
mph
1013.9mb 60f 58f
3:00pm 6ft 9s 11 13 mph 1013.9mb 60f 58f
2:00pm 6ft 10s 9 11 mph 1013.8mb 60f 57f
1:00pm 7ft 9s 7 11 mph 1013.6mb 60f 58f
12:00pm 6.5ft 10s 4 7 mph 1013.2mb 60f 57f
11:00am 6ft 10s 4 7 mph 1012.9mb 60f 57f
10:00am 6ft 9s 4 7 mph 1012.6mb 59f 57f